sensor_id;sensor_type;location;lat;lon;timestamp;temperature;humidity
48998;DHT22;34807;51.456;7.244;2022-09-09T00:00:12;19.10;80.90
48998;DHT22;34807;51.456;7.244;2022-09-09T00:02:37;19.10;80.90
48998;DHT22;34807;51.456;7.244;2022-09-09T00:14:56;19.00;81.00
48998;DHT22;34807;51.456;7.244;2022-09-09T00:19:56;19.00;81.10
48998;DHT22;34807;51.456;7.244;2022-09-09T00:22:25;19.00;81.00
48998;DHT22;34807;51.456;7.244;2022-09-09T00:24:53;19.00;81.00
48998;DHT22;34807;51.456;7.244;2022-09-09T00:28:01;19.00;81.30
48998;DHT22;34807;51.456;7.244;2022-09-09T00:30:20;19.00;81.30
48998;DHT22;34807;51.456;7.244;2022-09-09T00:32:48;18.90;81.40
48998;DHT22;34807;51.456;7.244;2022-09-09T00:37:41;18.90;81.40
48998;DHT22;34807;51.456;7.244;2022-09-09T00:42:47;18.90;81.40
48998;DHT22;34807;51.456;7.244;2022-09-09T00:45:38;18.90;81.60
48998;DHT22;34807;51.456;7.244;2022-09-09T00:48:11;18.90;81.60
48998;DHT22;34807;51.456;7.244;2022-09-09T00:58:06;18.80;81.70
48998;DHT22;34807;51.456;7.244;2022-09-09T01:00:35;18.80;81.70
48998;DHT22;34807;51.456;7.244;2022-09-09T01:05:57;18.80;81.70
48998;DHT22;34807;51.456;7.244;2022-09-09T01:08:48;18.80;81.90
48998;DHT22;34807;51.456;7.244;2022-09-09T01:11:21;18.70;81.90
48998;DHT22;34807;51.456;7.244;2022-09-09T01:13:47;18.70;82.00
48998;DHT22;34807;51.456;7.244;2022-09-09T01:16:14;18.70;82.00
48998;DHT22;34807;51.456;7.244;2022-09-09T01:18:46;18.70;81.90
48998;DHT22;34807;51.456;7.244;2022-09-09T01:21:16;18.70;82.00
48998;DHT22;34807;51.456;7.244;2022-09-09T01:26:26;18.60;81.90
48998;DHT22;34807;51.456;7.244;2022-09-09T01:28:53;18.60;82.10
48998;DHT22;34807;51.456;7.244;2022-09-09T01:31:20;18.60;82.10
48998;DHT22;34807;51.456;7.244;2022-09-09T01:33:46;18.60;82.20
48998;DHT22;34807;51.456;7.244;2022-09-09T01:36:13;18.60;82.00
48998;DHT22;34807;51.456;7.244;2022-09-09T01:38:40;18.60;82.10
48998;DHT22;34807;51.456;7.244;2022-09-09T01:41:06;18.60;82.20
48998;DHT22;34807;51.456;7.244;2022-09-09T01:43:31;18.60;82.30
48998;DHT22;34807;51.456;7.244;2022-09-09T01:45:59;18.50;82.20
48998;DHT22;34807;51.456;7.244;2022-09-09T01:48:25;18.60;82.10
48998;DHT22;34807;51.456;7.244;2022-09-09T01:50:51;18.50;82.00
48998;DHT22;34807;51.456;7.244;2022-09-09T01:53:17;18.50;82.20
48998;DHT22;34807;51.456;7.244;2022-09-09T01:56:08;18.50;81.90
48998;DHT22;34807;51.456;7.244;2022-09-09T02:03:46;18.50;81.90
48998;DHT22;34807;51.456;7.244;2022-09-09T02:11:14;18.40;82.10
48998;DHT22;34807;51.456;7.244;2022-09-09T02:13:40;18.40;82.20
48998;DHT22;34807;51.456;7.244;2022-09-09T02:18:35;18.40;82.10
48998;DHT22;34807;51.456;7.244;2022-09-09T02:21:02;18.40;82.20
48998;DHT22;34807;51.456;7.244;2022-09-09T02:23:28;18.40;82.30
48998;DHT22;34807;51.456;7.244;2022-09-09T02:25:53;18.40;82.30
48998;DHT22;34807;51.456;7.244;2022-09-09T02:28:21;18.40;82.30
48998;DHT22;34807;51.456;7.244;2022-09-09T02:30:48;18.30;82.30
48998;DHT22;34807;51.456;7.244;2022-09-09T02:33:26;18.30;82.30
48998;DHT22;34807;51.456;7.244;2022-09-09T02:35:53;18.30;82.40
48998;DHT22;34807;51.456;7.244;2022-09-09T02:38:21;18.30;82.40
48998;DHT22;34807;51.456;7.244;2022-09-09T02:40:50;18.30;82.50
48998;DHT22;34807;51.456;7.244;2022-09-09T02:43:16;18.30;82.50
48998;DHT22;34807;51.456;7.244;2022-09-09T02:56:15;18.30;82.60
48998;DHT22;34807;51.456;7.244;2022-09-09T02:58:41;18.30;82.70
48998;DHT22;34807;51.456;7.244;2022-09-09T03:01:07;18.30;82.70
48998;DHT22;34807;51.456;7.244;2022-09-09T03:03:34;18.30;82.70
48998;DHT22;34807;51.456;7.244;2022-09-09T03:05:59;18.20;82.70
48998;DHT22;34807;51.456;7.244;2022-09-09T03:08:25;18.20;82.80
48998;DHT22;34807;51.456;7.244;2022-09-09T03:10:53;18.20;82.70
48998;DHT22;34807;51.456;7.244;2022-09-09T03:13:19;18.20;82.80
48998;DHT22;34807;51.456;7.244;2022-09-09T03:15:44;18.20;82.80
48998;DHT22;34807;51.456;7.244;2022-09-09T03:18:10;18.20;82.70
48998;DHT22;34807;51.456;7.244;2022-09-09T03:20:35;18.20;82.80
48998;DHT22;34807;51.456;7.244;2022-09-09T03:23:01;18.20;82.80
48998;DHT22;34807;51.456;7.244;2022-09-09T03:25:27;18.20;82.90
48998;DHT22;34807;51.456;7.244;2022-09-09T03:27:54;18.20;82.80
48998;DHT22;34807;51.456;7.244;2022-09-09T03:30:20;18.10;82.80
48998;DHT22;34807;51.456;7.244;2022-09-09T03:32:46;18.10;82.90
48998;DHT22;34807;51.456;7.244;2022-09-09T03:35:11;18.10;82.80
48998;DHT22;34807;51.456;7.244;2022-09-09T03:37:37;18.10;82.90
48998;DHT22;34807;51.456;7.244;2022-09-09T03:40:04;18.10;82.80
48998;DHT22;34807;51.456;7.244;2022-09-09T03:42:29;18.10;82.90
48998;DHT22;34807;51.456;7.244;2022-09-09T03:44:56;18.10;82.80
48998;DHT22;34807;51.456;7.244;2022-09-09T03:47:23;18.10;83.00
48998;DHT22;34807;51.456;7.244;2022-09-09T03:49:48;18.10;83.00
48998;DHT22;34807;51.456;7.244;2022-09-09T03:52:14;18.10;83.00
48998;DHT22;34807;51.456;7.244;2022-09-09T03:54:40;18.10;83.10
48998;DHT22;34807;51.456;7.244;2022-09-09T03:57:06;18.10;83.10
48998;DHT22;34807;51.456;7.244;2022-09-09T03:59:32;18.10;83.10
48998;DHT22;34807;51.456;7.244;2022-09-09T04:01:57;18.00;83.00
48998;DHT22;34807;51.456;7.244;2022-09-09T04:04:24;18.00;83.00
48998;DHT22;34807;51.456;7.244;2022-09-09T04:06:51;18.00;83.10
48998;DHT22;34807;51.456;7.244;2022-09-09T04:09:16;18.00;83.10
48998;DHT22;34807;51.456;7.244;2022-09-09T04:11:42;18.00;83.10
48998;DHT22;34807;51.456;7.244;2022-09-09T04:14:07;18.00;83.20
48998;DHT22;34807;51.456;7.244;2022-09-09T04:16:34;18.00;83.10
48998;DHT22;34807;51.456;7.244;2022-09-09T04:19:02;18.00;83.10
48998;DHT22;34807;51.456;7.244;2022-09-09T04:21:29;18.00;83.10
48998;DHT22;34807;51.456;7.244;2022-09-09T04:23:55;18.00;83.20
48998;DHT22;34807;51.456;7.244;2022-09-09T04:26:20;18.00;83.20
48998;DHT22;34807;51.456;7.244;2022-09-09T04:28:46;18.00;83.30
48998;DHT22;34807;51.456;7.244;2022-09-09T04:31:16;18.00;83.20
48998;DHT22;34807;51.456;7.244;2022-09-09T04:33:43;18.00;83.20
48998;DHT22;34807;51.456;7.244;2022-09-09T04:36:08;18.00;83.30
48998;DHT22;34807;51.456;7.244;2022-09-09T04:38:34;18.00;83.30
48998;DHT22;34807;51.456;7.244;2022-09-09T04:40:59;18.00;83.30
48998;DHT22;34807;51.456;7.244;2022-09-09T04:43:25;18.00;83.40
48998;DHT22;34807;51.456;7.244;2022-09-09T04:45:51;18.00;83.30
48998;DHT22;34807;51.456;7.244;2022-09-09T04:48:16;17.90;83.30
48998;DHT22;34807;51.456;7.244;2022-09-09T04:50:42;17.90;83.40
48998;DHT22;34807;51.456;7.244;2022-09-09T04:53:07;17.90;83.30
48998;DHT22;34807;51.456;7.244;2022-09-09T04:55:33;17.90;83.40
48998;DHT22;34807;51.456;7.244;2022-09-09T04:58:06;17.90;83.20
48998;DHT22;34807;51.456;7.244;2022-09-09T05:00:32;17.90;83.40
48998;DHT22;34807;51.456;7.244;2022-09-09T05:03:01;17.90;83.50
48998;DHT22;34807;51.456;7.244;2022-09-09T05:05:28;17.90;83.50
48998;DHT22;34807;51.456;7.244;2022-09-09T05:07:53;17.90;83.40
48998;DHT22;34807;51.456;7.244;2022-09-09T05:10:19;17.90;83.50
48998;DHT22;34807;51.456;7.244;2022-09-09T05:12:51;17.90;83.50
48998;DHT22;34807;51.456;7.244;2022-09-09T05:15:18;17.90;83.60
48998;DHT22;34807;51.456;7.244;2022-09-09T05:17:43;17.90;83.50
48998;DHT22;34807;51.456;7.244;2022-09-09T05:20:09;17.90;83.60
48998;DHT22;34807;51.456;7.244;2022-09-09T05:22:34;17.90;83.70
48998;DHT22;34807;51.456;7.244;2022-09-09T05:25:00;17.90;83.50
48998;DHT22;34807;51.456;7.244;2022-09-09T05:27:26;17.90;83.90
48998;DHT22;34807;51.456;7.244;2022-09-09T05:29:52;17.90;83.60
48998;DHT22;34807;51.456;7.244;2022-09-09T05:32:17;17.90;83.60
48998;DHT22;34807;51.456;7.244;2022-09-09T05:34:43;17.90;83.60
48998;DHT22;34807;51.456;7.244;2022-09-09T05:37:08;17.90;83.70
48998;DHT22;34807;51.456;7.244;2022-09-09T05:39:34;17.90;83.70
48998;DHT22;34807;51.456;7.244;2022-09-09T05:42:02;17.90;83.70
48998;DHT22;34807;51.456;7.244;2022-09-09T05:44:29;17.90;83.60
48998;DHT22;34807;51.456;7.244;2022-09-09T05:46:54;17.90;83.70
48998;DHT22;34807;51.456;7.244;2022-09-09T05:49:20;17.90;83.60
48998;DHT22;34807;51.456;7.244;2022-09-09T05:51:46;17.90;83.60
48998;DHT22;34807;51.456;7.244;2022-09-09T05:54:13;17.90;83.70
48998;DHT22;34807;51.456;7.244;2022-09-09T05:56:40;17.90;83.70
48998;DHT22;34807;51.456;7.244;2022-09-09T05:59:06;17.90;83.60
48998;DHT22;34807;51.456;7.244;2022-09-09T06:01:32;17.90;83.60
48998;DHT22;34807;51.456;7.244;2022-09-09T06:03:58;17.90;83.60
48998;DHT22;34807;51.456;7.244;2022-09-09T06:06:30;18.00;83.60
48998;DHT22;34807;51.456;7.244;2022-09-09T06:08:56;17.90;83.60
48998;DHT22;34807;51.456;7.244;2022-09-09T06:11:26;17.90;83.60
48998;DHT22;34807;51.456;7.244;2022-09-09T06:13:52;18.00;83.60
48998;DHT22;34807;51.456;7.244;2022-09-09T06:16:19;18.00;83.60
48998;DHT22;34807;51.456;7.244;2022-09-09T06:18:45;18.00;83.60
48998;DHT22;34807;51.456;7.244;2022-09-09T06:21:20;18.00;83.60
48998;DHT22;34807;51.456;7.244;2022-09-09T06:23:46;18.00;83.60
48998;DHT22;34807;51.456;7.244;2022-09-09T06:28:48;18.00;83.50
48998;DHT22;34807;51.456;7.244;2022-09-09T06:31:15;18.10;83.60
48998;DHT22;34807;51.456;7.244;2022-09-09T06:33:47;18.10;83.60
48998;DHT22;34807;51.456;7.244;2022-09-09T06:36:13;18.10;83.60
48998;DHT22;34807;51.456;7.244;2022-09-09T06:38:40;18.10;83.50
48998;DHT22;34807;51.456;7.244;2022-09-09T06:41:05;18.10;83.40
48998;DHT22;34807;51.456;7.244;2022-09-09T06:43:31;18.10;83.50
48998;DHT22;34807;51.456;7.244;2022-09-09T06:46:00;18.10;83.40
48998;DHT22;34807;51.456;7.244;2022-09-09T06:48:27;18.10;83.50
48998;DHT22;34807;51.456;7.244;2022-09-09T06:51:00;18.20;83.60
48998;DHT22;34807;51.456;7.244;2022-09-09T06:53:26;18.20;83.40
48998;DHT22;34807;51.456;7.244;2022-09-09T06:55:52;18.20;83.20
48998;DHT22;34807;51.456;7.244;2022-09-09T06:58:18;18.20;83.30
48998;DHT22;34807;51.456;7.244;2022-09-09T07:00:44;18.30;83.50
48998;DHT22;34807;51.456;7.244;2022-09-09T07:03:10;18.30;83.30
48998;DHT22;34807;51.456;7.244;2022-09-09T07:05:36;18.30;83.30
48998;DHT22;34807;51.456;7.244;2022-09-09T07:08:02;18.30;83.30
48998;DHT22;34807;51.456;7.244;2022-09-09T07:10:28;18.30;83.30
48998;DHT22;34807;51.456;7.244;2022-09-09T07:12:53;18.30;83.10
48998;DHT22;34807;51.456;7.244;2022-09-09T07:15:20;18.30;83.10
48998;DHT22;34807;51.456;7.244;2022-09-09T07:17:46;18.40;83.20
48998;DHT22;34807;51.456;7.244;2022-09-09T07:20:13;18.40;83.00
48998;DHT22;34807;51.456;7.244;2022-09-09T07:22:40;18.40;83.10
48998;DHT22;34807;51.456;7.244;2022-09-09T07:25:05;18.40;83.00
48998;DHT22;34807;51.456;7.244;2022-09-09T07:27:31;18.40;83.10
48998;DHT22;34807;51.456;7.244;2022-09-09T07:29:56;18.40;83.00
48998;DHT22;34807;51.456;7.244;2022-09-09T07:32:22;18.40;82.90
48998;DHT22;34807;51.456;7.244;2022-09-09T07:34:48;18.40;83.00
48998;DHT22;34807;51.456;7.244;2022-09-09T07:37:15;18.40;83.00
48998;DHT22;34807;51.456;7.244;2022-09-09T07:39:41;18.40;82.90
48998;DHT22;34807;51.456;7.244;2022-09-09T07:42:07;18.40;82.90
48998;DHT22;34807;51.456;7.244;2022-09-09T07:44:33;18.50;83.00
48998;DHT22;34807;51.456;7.244;2022-09-09T07:47:01;18.50;82.90
48998;DHT22;34807;51.456;7.244;2022-09-09T07:49:27;18.50;82.80
48998;DHT22;34807;51.456;7.244;2022-09-09T07:51:52;18.50;82.90
48998;DHT22;34807;51.456;7.244;2022-09-09T07:54:18;18.50;82.70
48998;DHT22;34807;51.456;7.244;2022-09-09T07:56:48;18.50;82.70
48998;DHT22;34807;51.456;7.244;2022-09-09T07:59:14;18.60;82.70
48998;DHT22;34807;51.456;7.244;2022-09-09T08:01:44;18.60;82.90
48998;DHT22;34807;51.456;7.244;2022-09-09T08:04:11;18.60;82.60
48998;DHT22;34807;51.456;7.244;2022-09-09T08:06:41;18.60;82.60
48998;DHT22;34807;51.456;7.244;2022-09-09T08:09:08;18.60;82.70
48998;DHT22;34807;51.456;7.244;2022-09-09T08:11:34;18.60;82.70
48998;DHT22;34807;51.456;7.244;2022-09-09T08:14:01;18.60;82.60
48998;DHT22;34807;51.456;7.244;2022-09-09T08:16:28;18.60;82.60
48998;DHT22;34807;51.456;7.244;2022-09-09T08:18:55;18.60;82.60
48998;DHT22;34807;51.456;7.244;2022-09-09T08:21:21;18.60;82.70
48998;DHT22;34807;51.456;7.244;2022-09-09T08:23:47;18.60;82.40
48998;DHT22;34807;51.456;7.244;2022-09-09T08:26:14;18.60;82.60
48998;DHT22;34807;51.456;7.244;2022-09-09T08:28:40;18.70;82.30
48998;DHT22;34807;51.456;7.244;2022-09-09T08:33:32;18.80;82.00
48998;DHT22;34807;51.456;7.244;2022-09-09T08:35:58;18.80;82.00
48998;DHT22;34807;51.456;7.244;2022-09-09T08:38:24;18.80;82.10
48998;DHT22;34807;51.456;7.244;2022-09-09T08:40:49;18.90;82.00
48998;DHT22;34807;51.456;7.244;2022-09-09T08:43:19;18.90;82.00
48998;DHT22;34807;51.456;7.244;2022-09-09T08:45:58;18.90;81.80
48998;DHT22;34807;51.456;7.244;2022-09-09T08:51:27;18.90;81.60
48998;DHT22;34807;51.456;7.244;2022-09-09T08:53:55;19.00;81.60
48998;DHT22;34807;51.456;7.244;2022-09-09T08:56:23;19.00;81.40
48998;DHT22;34807;51.456;7.244;2022-09-09T08:58:50;19.10;81.50
48998;DHT22;34807;51.456;7.244;2022-09-09T09:04:00;19.10;81.20
48998;DHT22;34807;51.456;7.244;2022-09-09T09:11:21;19.30;80.90
48998;DHT22;34807;51.456;7.244;2022-09-09T09:13:58;19.40;80.70
48998;DHT22;34807;51.456;7.244;2022-09-09T09:16:33;19.50;80.50
48998;DHT22;34807;51.456;7.244;2022-09-09T09:18:59;19.40;80.30
48998;DHT22;34807;51.456;7.244;2022-09-09T09:21:34;19.40;80.10
48998;DHT22;34807;51.456;7.244;2022-09-09T09:24:01;19.50;80.50
48998;DHT22;34807;51.456;7.244;2022-09-09T09:26:33;19.50;80.10
48998;DHT22;34807;51.456;7.244;2022-09-09T09:29:00;19.50;80.20
48998;DHT22;34807;51.456;7.244;2022-09-09T09:31:29;19.50;80.20
48998;DHT22;34807;51.456;7.244;2022-09-09T09:33:55;19.50;80.20
48998;DHT22;34807;51.456;7.244;2022-09-09T09:36:23;19.50;80.10
48998;DHT22;34807;51.456;7.244;2022-09-09T09:38:53;19.50;80.20
48998;DHT22;34807;51.456;7.244;2022-09-09T09:41:28;19.50;80.10
48998;DHT22;34807;51.456;7.244;2022-09-09T09:43:54;19.50;80.20
48998;DHT22;34807;51.456;7.244;2022-09-09T09:46:21;19.50;80.10
48998;DHT22;34807;51.456;7.244;2022-09-09T09:48:58;19.60;80.20
48998;DHT22;34807;51.456;7.244;2022-09-09T09:51:23;19.60;80.00
48998;DHT22;34807;51.456;7.244;2022-09-09T09:53:49;19.60;80.00
48998;DHT22;34807;51.456;7.244;2022-09-09T09:56:17;19.60;80.10
48998;DHT22;34807;51.456;7.244;2022-09-09T09:58:51;19.70;79.80
48998;DHT22;34807;51.456;7.244;2022-09-09T10:03:50;19.80;79.50
48998;DHT22;34807;51.456;7.244;2022-09-09T10:06:17;19.80;79.20
48998;DHT22;34807;51.456;7.244;2022-09-09T10:08:45;19.90;79.30
48998;DHT22;34807;51.456;7.244;2022-09-09T10:19:14;20.20;78.70
48998;DHT22;34807;51.456;7.244;2022-09-09T10:24:41;20.20;78.60
48998;DHT22;34807;51.456;7.244;2022-09-09T10:27:15;20.20;78.70
48998;DHT22;34807;51.456;7.244;2022-09-09T10:51:14;20.60;77.40
48998;DHT22;34807;51.456;7.244;2022-09-09T10:56:28;20.70;77.10
48998;DHT22;34807;51.456;7.244;2022-09-09T10:59:02;20.70;76.60
48998;DHT22;34807;51.456;7.244;2022-09-09T11:01:31;20.80;76.40
48998;DHT22;34807;51.456;7.244;2022-09-09T11:03:59;21.00;76.20
48998;DHT22;34807;51.456;7.244;2022-09-09T11:06:32;21.10;75.70
48998;DHT22;34807;51.456;7.244;2022-09-09T11:09:00;21.10;75.60
48998;DHT22;34807;51.456;7.244;2022-09-09T11:11:29;21.10;75.80
48998;DHT22;34807;51.456;7.244;2022-09-09T11:13:59;21.10;75.50
48998;DHT22;34807;51.456;7.244;2022-09-09T11:16:34;21.10;75.80
48998;DHT22;34807;51.456;7.244;2022-09-09T11:19:10;21.10;75.50
48998;DHT22;34807;51.456;7.244;2022-09-09T11:21:44;21.10;75.40
48998;DHT22;34807;51.456;7.244;2022-09-09T11:24:13;21.10;75.60
48998;DHT22;34807;51.456;7.244;2022-09-09T11:26:54;21.20;75.60
48998;DHT22;34807;51.456;7.244;2022-09-09T11:40:27;21.40;74.80
48998;DHT22;34807;51.456;7.244;2022-09-09T11:43:03;21.30;74.90
48998;DHT22;34807;51.456;7.244;2022-09-09T11:45:31;21.30;75.00
48998;DHT22;34807;51.456;7.244;2022-09-09T11:47:59;21.30;75.00
48998;DHT22;34807;51.456;7.244;2022-09-09T11:52:51;21.30;74.80
48998;DHT22;34807;51.456;7.244;2022-09-09T11:55:29;21.40;75.70
48998;DHT22;34807;51.456;7.244;2022-09-09T11:58:00;21.30;75.00
48998;DHT22;34807;51.456;7.244;2022-09-09T12:00:36;21.30;75.10
48998;DHT22;34807;51.456;7.244;2022-09-09T12:03:03;21.30;75.30
48998;DHT22;34807;51.456;7.244;2022-09-09T12:06:07;21.20;75.30
48998;DHT22;34807;51.456;7.244;2022-09-09T12:08:23;21.20;76.10
48998;DHT22;34807;51.456;7.244;2022-09-09T12:10:54;21.20;75.60
48998;DHT22;34807;51.456;7.244;2022-09-09T12:13:22;21.20;75.20
48998;DHT22;34807;51.456;7.244;2022-09-09T12:15:50;21.20;75.50
48998;DHT22;34807;51.456;7.244;2022-09-09T12:21:03;21.20;75.40
48998;DHT22;34807;51.456;7.244;2022-09-09T12:31:34;21.30;75.40
48998;DHT22;34807;51.456;7.244;2022-09-09T12:34:15;21.40;75.00
48998;DHT22;34807;51.456;7.244;2022-09-09T12:36:41;21.50;74.90
48998;DHT22;34807;51.456;7.244;2022-09-09T12:39:55;21.50;74.80
48998;DHT22;34807;51.456;7.244;2022-09-09T12:41:55;21.50;75.60
48998;DHT22;34807;51.456;7.244;2022-09-09T12:44:23;21.50;75.20
48998;DHT22;34807;51.456;7.244;2022-09-09T12:46:49;21.50;75.30
48998;DHT22;34807;51.456;7.244;2022-09-09T12:49:31;21.40;75.30
48998;DHT22;34807;51.456;7.244;2022-09-09T12:52:14;21.40;75.40
48998;DHT22;34807;51.456;7.244;2022-09-09T12:54:43;21.40;75.60
48998;DHT22;34807;51.456;7.244;2022-09-09T12:57:10;21.30;75.70
48998;DHT22;34807;51.456;7.244;2022-09-09T12:59:38;21.30;75.70
48998;DHT22;34807;51.456;7.244;2022-09-09T13:02:24;21.40;75.80
48998;DHT22;34807;51.456;7.244;2022-09-09T13:04:50;21.40;75.80
48998;DHT22;34807;51.456;7.244;2022-09-09T13:07:17;21.40;75.60
48998;DHT22;34807;51.456;7.244;2022-09-09T13:09:43;21.50;75.50
48998;DHT22;34807;51.456;7.244;2022-09-09T13:12:16;21.60;75.60
48998;DHT22;34807;51.456;7.244;2022-09-09T13:14:43;21.60;75.40
48998;DHT22;34807;51.456;7.244;2022-09-09T13:17:17;21.60;75.30
48998;DHT22;34807;51.456;7.244;2022-09-09T13:19:43;21.60;75.40
48998;DHT22;34807;51.456;7.244;2022-09-09T13:25:03;21.60;75.60
48998;DHT22;34807;51.456;7.244;2022-09-09T13:27:35;21.60;75.70
48998;DHT22;34807;51.456;7.244;2022-09-09T13:32:59;21.70;75.60
48998;DHT22;34807;51.456;7.244;2022-09-09T13:35:25;21.70;75.70
48998;DHT22;34807;51.456;7.244;2022-09-09T13:37:51;21.70;75.70
48998;DHT22;34807;51.456;7.244;2022-09-09T13:40:18;21.70;75.60
48998;DHT22;34807;51.456;7.244;2022-09-09T13:42:43;21.70;75.80
48998;DHT22;34807;51.456;7.244;2022-09-09T13:45:17;21.60;76.00
48998;DHT22;34807;51.456;7.244;2022-09-09T13:47:43;21.60;76.10
48998;DHT22;34807;51.456;7.244;2022-09-09T13:52:49;21.50;76.30
48998;DHT22;34807;51.456;7.244;2022-09-09T13:55:17;21.40;76.40
48998;DHT22;34807;51.456;7.244;2022-09-09T14:00:20;21.30;76.60
48998;DHT22;34807;51.456;7.244;2022-09-09T14:02:46;21.30;76.60
48998;DHT22;34807;51.456;7.244;2022-09-09T14:05:12;21.30;76.80
48998;DHT22;34807;51.456;7.244;2022-09-09T14:07:38;21.30;76.70
48998;DHT22;34807;51.456;7.244;2022-09-09T14:10:05;21.30;76.70
48998;DHT22;34807;51.456;7.244;2022-09-09T14:12:31;21.40;76.60
48998;DHT22;34807;51.456;7.244;2022-09-09T14:14:56;21.40;76.70
48998;DHT22;34807;51.456;7.244;2022-09-09T14:17:22;21.50;76.80
48998;DHT22;34807;51.456;7.244;2022-09-09T14:19:48;21.50;76.60
48998;DHT22;34807;51.456;7.244;2022-09-09T14:22:14;21.70;76.50
48998;DHT22;34807;51.456;7.244;2022-09-09T14:24:39;21.80;76.50
48998;DHT22;34807;51.456;7.244;2022-09-09T14:27:06;21.90;76.10
48998;DHT22;34807;51.456;7.244;2022-09-09T14:29:31;21.90;75.90
48998;DHT22;34807;51.456;7.244;2022-09-09T14:31:58;21.90;75.90
48998;DHT22;34807;51.456;7.244;2022-09-09T14:34:26;21.90;76.20
48998;DHT22;34807;51.456;7.244;2022-09-09T14:36:51;21.90;76.10
48998;DHT22;34807;51.456;7.244;2022-09-09T14:39:17;21.80;76.10
48998;DHT22;34807;51.456;7.244;2022-09-09T14:41:42;21.80;76.20
48998;DHT22;34807;51.456;7.244;2022-09-09T14:44:08;21.80;76.20
48998;DHT22;34807;51.456;7.244;2022-09-09T14:46:33;21.80;76.30
48998;DHT22;34807;51.456;7.244;2022-09-09T14:48:59;21.80;76.50
48998;DHT22;34807;51.456;7.244;2022-09-09T14:51:25;21.80;76.00
48998;DHT22;34807;51.456;7.244;2022-09-09T14:53:52;21.70;76.50
48998;DHT22;34807;51.456;7.244;2022-09-09T14:56:19;21.70;76.60
48998;DHT22;34807;51.456;7.244;2022-09-09T14:58:45;21.80;76.60
48998;DHT22;34807;51.456;7.244;2022-09-09T15:01:12;21.90;76.70
48998;DHT22;34807;51.456;7.244;2022-09-09T15:03:38;22.20;76.00
48998;DHT22;34807;51.456;7.244;2022-09-09T15:06:04;22.30;75.30
48998;DHT22;34807;51.456;7.244;2022-09-09T15:08:30;22.30;75.20
48998;DHT22;34807;51.456;7.244;2022-09-09T15:10:59;22.20;75.70
48998;DHT22;34807;51.456;7.244;2022-09-09T15:13:26;22.10;76.00
48998;DHT22;34807;51.456;7.244;2022-09-09T15:15:51;22.00;76.50
48998;DHT22;34807;51.456;7.244;2022-09-09T15:18:17;21.90;76.80
48998;DHT22;34807;51.456;7.244;2022-09-09T15:20:45;21.80;77.10
48998;DHT22;34807;51.456;7.244;2022-09-09T15:23:11;21.70;77.30
48998;DHT22;34807;51.456;7.244;2022-09-09T15:25:37;21.70;77.40
48998;DHT22;34807;51.456;7.244;2022-09-09T15:28:02;21.60;77.60
48998;DHT22;34807;51.456;7.244;2022-09-09T15:30:28;21.50;77.40
48998;DHT22;34807;51.456;7.244;2022-09-09T15:32:53;21.50;77.80
48998;DHT22;34807;51.456;7.244;2022-09-09T15:35:20;21.40;77.90
48998;DHT22;34807;51.456;7.244;2022-09-09T15:37:45;21.40;77.90
48998;DHT22;34807;51.456;7.244;2022-09-09T15:40:11;21.30;78.10
48998;DHT22;34807;51.456;7.244;2022-09-09T15:42:36;21.20;78.20
48998;DHT22;34807;51.456;7.244;2022-09-09T15:45:02;21.20;78.50
48998;DHT22;34807;51.456;7.244;2022-09-09T15:47:30;21.10;78.50
48998;DHT22;34807;51.456;7.244;2022-09-09T15:49:55;21.10;78.50
48998;DHT22;34807;51.456;7.244;2022-09-09T15:52:21;21.00;78.70
48998;DHT22;34807;51.456;7.244;2022-09-09T15:54:46;21.00;78.80
48998;DHT22;34807;51.456;7.244;2022-09-09T15:57:12;20.90;78.80
48998;DHT22;34807;51.456;7.244;2022-09-09T15:59:38;20.90;78.90
48998;DHT22;34807;51.456;7.244;2022-09-09T16:02:03;20.80;78.90
48998;DHT22;34807;51.456;7.244;2022-09-09T16:04:30;20.80;79.00
48998;DHT22;34807;51.456;7.244;2022-09-09T16:06:57;20.80;78.90
48998;DHT22;34807;51.456;7.244;2022-09-09T16:09:24;20.80;79.10
48998;DHT22;34807;51.456;7.244;2022-09-09T16:11:50;20.70;79.00
48998;DHT22;34807;51.456;7.244;2022-09-09T16:14:17;20.70;79.10
48998;DHT22;34807;51.456;7.244;2022-09-09T16:16:42;20.70;79.00
48998;DHT22;34807;51.456;7.244;2022-09-09T16:19:09;20.70;79.10
48998;DHT22;34807;51.456;7.244;2022-09-09T16:21:42;20.70;79.10
48998;DHT22;34807;51.456;7.244;2022-09-09T16:24:08;20.70;79.10
48998;DHT22;34807;51.456;7.244;2022-09-09T16:26:35;20.60;79.10
48998;DHT22;34807;51.456;7.244;2022-09-09T16:29:01;20.60;79.10
48998;DHT22;34807;51.456;7.244;2022-09-09T16:31:27;20.60;79.10
48998;DHT22;34807;51.456;7.244;2022-09-09T16:33:53;20.60;79.30
48998;DHT22;34807;51.456;7.244;2022-09-09T16:36:22;20.60;79.20
48998;DHT22;34807;51.456;7.244;2022-09-09T16:38:51;20.60;79.30
48998;DHT22;34807;51.456;7.244;2022-09-09T16:41:17;20.60;79.30
48998;DHT22;34807;51.456;7.244;2022-09-09T16:43:42;20.60;79.40
48998;DHT22;34807;51.456;7.244;2022-09-09T16:46:17;20.50;79.30
48998;DHT22;34807;51.456;7.244;2022-09-09T16:48:43;20.50;79.50
48998;DHT22;34807;51.456;7.244;2022-09-09T16:51:14;20.50;79.60
48998;DHT22;34807;51.456;7.244;2022-09-09T16:53:40;20.50;79.60
48998;DHT22;34807;51.456;7.244;2022-09-09T16:56:08;20.50;79.70
48998;DHT22;34807;51.456;7.244;2022-09-09T16:58:34;20.40;79.60
48998;DHT22;34807;51.456;7.244;2022-09-09T17:01:00;20.40;79.70
48998;DHT22;34807;51.456;7.244;2022-09-09T17:03:27;20.40;79.70
48998;DHT22;34807;51.456;7.244;2022-09-09T17:05:53;20.40;79.80
48998;DHT22;34807;51.456;7.244;2022-09-09T17:08:18;20.40;79.90
48998;DHT22;34807;51.456;7.244;2022-09-09T17:10:44;20.30;79.80
48998;DHT22;34807;51.456;7.244;2022-09-09T17:13:10;20.30;79.80
48998;DHT22;34807;51.456;7.244;2022-09-09T17:15:41;20.30;79.90
48998;DHT22;34807;51.456;7.244;2022-09-09T17:18:08;20.20;80.10
48998;DHT22;34807;51.456;7.244;2022-09-09T17:20:35;20.20;80.10
48998;DHT22;34807;51.456;7.244;2022-09-09T17:23:01;20.20;80.10
48998;DHT22;34807;51.456;7.244;2022-09-09T17:25:26;20.20;80.20
48998;DHT22;34807;51.456;7.244;2022-09-09T17:27:52;20.20;80.40
48998;DHT22;34807;51.456;7.244;2022-09-09T17:30:18;20.10;80.40
48998;DHT22;34807;51.456;7.244;2022-09-09T17:32:44;20.10;80.60
48998;DHT22;34807;51.456;7.244;2022-09-09T17:35:09;20.10;80.50
48998;DHT22;34807;51.456;7.244;2022-09-09T17:37:35;20.10;80.50
48998;DHT22;34807;51.456;7.244;2022-09-09T17:40:00;20.00;80.50
48998;DHT22;34807;51.456;7.244;2022-09-09T17:42:27;20.00;80.70
48998;DHT22;34807;51.456;7.244;2022-09-09T17:44:53;20.00;80.70
48998;DHT22;34807;51.456;7.244;2022-09-09T17:47:18;20.00;80.70
48998;DHT22;34807;51.456;7.244;2022-09-09T17:49:44;19.90;80.90
48998;DHT22;34807;51.456;7.244;2022-09-09T17:52:09;19.90;81.00
48998;DHT22;34807;51.456;7.244;2022-09-09T17:54:35;19.90;80.90